createdAt,value
2017-12-28T00:02:11.632Z,4.22
2017-12-28T00:04:38.385Z,4.30
2017-12-28T00:07:05.832Z,4.40
2017-12-28T00:09:33.300Z,5.32
2017-12-28T00:12:00.779Z,4.40
2017-12-28T00:14:28.255Z,4.10
2017-12-28T00:16:55.714Z,4.60
2017-12-28T00:19:23.177Z,4.70
2017-12-28T00:21:50.624Z,4.57
2017-12-28T00:24:18.076Z,9.20
2017-12-28T00:26:45.566Z,5.12
2017-12-28T00:29:13.038Z,5.22
2017-12-28T00:31:40.484Z,5.30
2017-12-28T00:34:07.969Z,5.20
2017-12-28T00:36:35.445Z,5.47
2017-12-28T00:39:02.910Z,5.40
2017-12-28T00:41:30.383Z,5.60
2017-12-28T00:43:57.828Z,5.45
2017-12-28T00:46:25.299Z,4.30
2017-12-28T00:48:52.778Z,5.28
2017-12-28T00:51:20.227Z,5.07
2017-12-28T00:53:47.690Z,5.30
2017-12-28T00:56:15.144Z,6.15
2017-12-28T00:58:42.619Z,5.82
2017-12-28T01:01:10.151Z,6.45
2017-12-28T01:03:37.695Z,6.00
2017-12-28T01:06:05.164Z,5.78
2017-12-28T01:08:32.683Z,5.53
2017-12-28T01:11:00.523Z,6.62
2017-12-28T01:13:27.992Z,5.65
2017-12-28T01:15:55.436Z,6.30
2017-12-28T01:18:22.903Z,7.55
2017-12-28T01:20:50.379Z,6.10
2017-12-28T01:23:17.852Z,4.90
2017-12-28T01:25:45.326Z,5.75
2017-12-28T01:28:12.806Z,5.37
2017-12-28T01:30:40.256Z,5.80
2017-12-28T01:33:07.716Z,6.15
2017-12-28T01:35:35.186Z,5.80
2017-12-28T01:38:02.651Z,5.57
2017-12-28T01:40:30.131Z,6.95
2017-12-28T01:42:57.594Z,5.05
2017-12-28T01:45:25.048Z,5.10
2017-12-28T01:48:02.368Z,4.80
2017-12-28T01:50:29.835Z,5.05
2017-12-28T01:52:57.311Z,5.68
2017-12-28T01:55:24.787Z,5.20
2017-12-28T01:57:52.234Z,5.25
2017-12-28T02:00:19.704Z,5.10
2017-12-28T02:02:47.187Z,5.30
2017-12-28T02:05:14.635Z,5.72
2017-12-28T02:07:42.107Z,5.32
2017-12-28T02:10:09.590Z,5.10
2017-12-28T02:12:37.054Z,4.87
2017-12-28T02:15:05.345Z,4.85
2017-12-28T02:17:32.799Z,8.20
2017-12-28T02:20:00.243Z,5.12
2017-12-28T02:22:27.679Z,5.20
2017-12-28T02:24:55.152Z,5.47
2017-12-28T02:27:22.619Z,5.82
2017-12-28T02:29:50.069Z,5.90
2017-12-28T02:32:17.571Z,5.53
2017-12-28T02:34:45.039Z,4.80
2017-12-28T02:37:12.489Z,9.48
2017-12-28T02:39:39.956Z,5.65
2017-12-28T02:42:07.416Z,5.60
2017-12-28T02:44:34.886Z,5.47
2017-12-28T02:47:02.363Z,5.45
2017-12-28T02:49:29.811Z,5.45
2017-12-28T02:51:57.273Z,5.40
2017-12-28T02:54:24.751Z,5.50
2017-12-28T02:56:52.200Z,4.95
2017-12-28T02:59:19.644Z,5.28
2017-12-28T03:01:47.118Z,4.78
2017-12-28T03:04:14.582Z,4.80
2017-12-28T03:06:42.049Z,4.30
2017-12-28T03:09:09.504Z,4.60
2017-12-28T03:11:36.971Z,5.03
2017-12-28T03:14:04.437Z,4.90
2017-12-28T03:16:31.902Z,4.15
2017-12-28T03:18:59.352Z,4.20
2017-12-28T03:21:26.836Z,4.30
2017-12-28T03:23:54.305Z,4.10
2017-12-28T03:26:21.776Z,4.45
2017-12-28T03:28:49.253Z,3.78
2017-12-28T03:31:16.699Z,3.80
2017-12-28T03:33:44.177Z,3.67
2017-12-28T03:36:11.640Z,4.43
2017-12-28T03:38:39.097Z,4.10
2017-12-28T03:41:06.576Z,4.70
2017-12-28T03:43:34.045Z,4.60
2017-12-28T03:46:01.511Z,3.97
2017-12-28T03:48:28.975Z,4.70
2017-12-28T03:50:56.455Z,4.47
2017-12-28T03:53:23.919Z,4.07
2017-12-28T03:55:51.364Z,3.97
2017-12-28T03:58:18.846Z,4.40
2017-12-28T04:00:46.319Z,3.87
2017-12-28T04:03:13.788Z,3.58
2017-12-28T04:05:41.271Z,3.75
2017-12-28T04:08:08.720Z,4.03
2017-12-28T04:10:36.190Z,3.62
2017-12-28T04:13:03.675Z,4.40
2017-12-28T04:15:31.130Z,3.87
2017-12-28T04:17:58.608Z,3.83
2017-12-28T04:20:26.093Z,4.50
2017-12-28T04:22:53.547Z,3.80
2017-12-28T04:25:20.991Z,4.00
2017-12-28T04:27:48.469Z,3.40
2017-12-28T04:30:15.939Z,3.50
2017-12-28T04:32:43.402Z,4.40
2017-12-28T04:35:10.882Z,3.90
2017-12-28T04:37:38.344Z,7.03
2017-12-28T04:40:05.796Z,5.15
2017-12-28T04:42:33.274Z,4.30
2017-12-28T04:45:00.735Z,4.65
2017-12-28T04:47:28.193Z,5.05
2017-12-28T04:49:55.688Z,5.30
2017-12-28T04:52:23.153Z,8.10
2017-12-28T04:54:50.618Z,4.47
2017-12-28T04:57:18.111Z,4.93
2017-12-28T04:59:45.583Z,5.22
2017-12-28T05:02:13.048Z,4.40
2017-12-28T05:04:40.520Z,5.12
2017-12-28T05:07:07.983Z,4.37
2017-12-28T05:09:35.419Z,4.87
2017-12-28T05:12:02.897Z,4.35
2017-12-28T05:14:30.339Z,4.68
2017-12-28T05:16:57.807Z,4.47
2017-12-28T05:19:25.287Z,4.53
2017-12-28T05:21:52.736Z,4.47
2017-12-28T05:24:20.190Z,4.60
2017-12-28T05:26:47.653Z,4.55
2017-12-28T05:29:15.117Z,5.20
2017-12-28T05:31:42.556Z,5.28
2017-12-28T05:34:10.026Z,5.70
2017-12-28T05:36:37.487Z,5.82
2017-12-28T05:39:04.930Z,7.07
2017-12-28T05:41:32.435Z,5.78
2017-12-28T05:43:59.888Z,6.10
2017-12-28T05:46:27.341Z,6.05
2017-12-28T05:48:54.823Z,8.30
2017-12-28T05:51:22.291Z,6.30
2017-12-28T05:53:49.761Z,5.85
2017-12-28T05:56:17.229Z,5.55
2017-12-28T05:58:44.690Z,6.62
2017-12-28T06:01:12.136Z,6.40
2017-12-28T06:03:39.615Z,5.93
2017-12-28T06:06:07.083Z,7.43
2017-12-28T06:08:34.550Z,6.78
2017-12-28T06:11:02.031Z,8.10
2017-12-28T06:13:29.480Z,8.52
2017-12-28T06:15:56.932Z,9.27
2017-12-28T06:18:24.414Z,9.52
2017-12-28T06:20:51.872Z,12.30
2017-12-28T06:23:19.343Z,9.88
2017-12-28T06:25:46.801Z,7.45
2017-12-28T06:28:14.268Z,11.73
2017-12-28T06:30:41.727Z,9.63
2017-12-28T06:33:09.211Z,7.62
2017-12-28T06:35:36.667Z,6.85
2017-12-28T06:38:04.126Z,5.90
2017-12-28T06:40:31.590Z,8.05
2017-12-28T06:42:59.036Z,6.87
2017-12-28T06:45:26.503Z,7.57
2017-12-28T06:47:53.995Z,6.70
2017-12-28T06:50:21.440Z,6.22
2017-12-28T06:52:48.887Z,6.20
2017-12-28T06:55:16.368Z,5.90
2017-12-28T06:57:43.812Z,6.72
2017-12-28T07:00:11.252Z,5.28
2017-12-28T07:02:38.711Z,7.18
2017-12-28T07:05:06.152Z,5.60
2017-12-28T07:07:33.595Z,5.32
2017-12-28T07:10:01.080Z,9.50
2017-12-28T07:12:28.523Z,6.40
2017-12-28T07:14:55.991Z,6.15
2017-12-28T07:17:23.462Z,6.03
2017-12-28T07:19:50.906Z,7.47
2017-12-28T07:22:18.351Z,5.90
2017-12-28T07:24:45.812Z,7.00
2017-12-28T07:27:13.276Z,6.47
2017-12-28T07:29:40.725Z,6.07
2017-12-28T07:32:08.188Z,6.57
2017-12-28T07:34:35.628Z,6.75
2017-12-28T07:37:03.077Z,8.70
2017-12-28T07:39:30.555Z,6.97
2017-12-28T07:41:58.004Z,9.07
2017-12-28T07:44:25.460Z,12.60
2017-12-28T07:46:52.937Z,7.90
2017-12-28T07:49:20.408Z,7.57
2017-12-28T07:51:47.861Z,15.95
2017-12-28T07:54:15.716Z,10.63
2017-12-28T07:56:43.174Z,9.13
2017-12-28T07:59:10.638Z,13.52
2017-12-28T08:01:38.124Z,17.33
2017-12-28T08:04:05.577Z,12.52
2017-12-28T08:06:33.055Z,11.23
2017-12-28T08:09:00.548Z,10.20
2017-12-28T08:11:28.010Z,12.10
2017-12-28T08:13:55.482Z,16.23
2017-12-28T08:16:22.940Z,9.52
2017-12-28T08:18:50.397Z,12.27
2017-12-28T08:21:17.849Z,8.20
2017-12-28T08:23:45.332Z,12.00
2017-12-28T08:26:12.803Z,10.35
2017-12-28T08:28:40.267Z,13.50
2017-12-28T08:31:07.770Z,9.27
2017-12-28T08:33:35.197Z,12.18
2017-12-28T08:36:02.655Z,13.48
2017-12-28T08:38:30.124Z,8.50
2017-12-28T08:40:57.601Z,17.75
2017-12-28T08:43:25.079Z,13.30
2017-12-28T08:45:52.562Z,11.30
2017-12-28T08:48:20.036Z,12.37
2017-12-28T08:50:47.530Z,13.82
2017-12-28T08:53:15.020Z,14.65
2017-12-28T08:55:42.488Z,13.68
2017-12-28T08:58:09.959Z,17.52
2017-12-28T09:00:37.428Z,10.27
2017-12-28T09:03:04.885Z,19.55
2017-12-28T09:05:32.377Z,11.00
2017-12-28T09:07:59.861Z,14.60
2017-12-28T09:10:27.313Z,15.55
2017-12-28T09:12:54.764Z,16.90
2017-12-28T09:15:22.251Z,15.07
2017-12-28T09:17:49.725Z,14.02
2017-12-28T09:20:17.193Z,10.98
2017-12-28T09:22:44.667Z,18.67
2017-12-28T09:25:12.139Z,20.08
2017-12-28T09:27:39.613Z,15.45
2017-12-28T09:30:07.096Z,18.42
2017-12-28T09:32:34.552Z,10.90
2017-12-28T09:35:02.044Z,16.08
2017-12-28T09:37:29.521Z,14.75
2017-12-28T09:39:56.981Z,13.48
2017-12-28T09:42:24.471Z,19.67
2017-12-28T09:44:51.943Z,13.73
2017-12-28T09:47:19.423Z,19.85
2017-12-28T09:49:46.902Z,12.25
2017-12-28T09:52:14.360Z,14.43
2017-12-28T09:54:41.812Z,22.52
2017-12-28T09:57:09.280Z,15.63
2017-12-28T09:59:36.729Z,13.02
2017-12-28T10:02:04.204Z,17.37
2017-12-28T10:04:31.672Z,26.92
2017-12-28T10:06:59.147Z,17.48
2017-12-28T10:09:26.620Z,17.75
2017-12-28T10:11:54.111Z,15.07
2017-12-28T10:14:21.591Z,17.42
2017-12-28T10:16:49.042Z,18.45
2017-12-28T10:19:16.522Z,29.67
2017-12-28T10:21:43.998Z,15.30
2017-12-28T10:24:11.459Z,20.15
2017-12-28T10:26:38.929Z,15.65
2017-12-28T10:29:06.398Z,19.00
2017-12-28T10:31:33.864Z,18.27
2017-12-28T10:34:01.328Z,17.65
2017-12-28T10:36:28.794Z,14.87
2017-12-28T10:38:56.271Z,17.83
2017-12-28T10:41:23.752Z,16.95
2017-12-28T10:43:51.207Z,18.70
2017-12-28T10:46:18.675Z,15.20
2017-12-28T10:48:46.145Z,10.90
2017-12-28T10:51:13.614Z,9.60
2017-12-28T10:53:41.083Z,11.82
2017-12-28T10:56:08.555Z,10.05
2017-12-28T10:58:36.022Z,17.33
2017-12-28T11:01:03.472Z,12.98
2017-12-28T11:03:30.954Z,11.57
2017-12-28T11:05:58.410Z,8.38
2017-12-28T11:08:25.878Z,11.88
2017-12-28T11:10:53.394Z,9.75
2017-12-28T11:13:20.872Z,12.93
2017-12-28T11:15:48.324Z,11.25
2017-12-28T11:18:15.795Z,14.40
2017-12-28T11:20:43.252Z,10.05
2017-12-28T11:23:10.718Z,11.68
2017-12-28T11:25:38.199Z,12.32
2017-12-28T11:28:05.672Z,16.75
2017-12-28T11:30:33.134Z,12.82
2017-12-28T11:33:00.587Z,10.10
2017-12-28T11:35:28.055Z,14.10
2017-12-28T11:37:55.539Z,22.73
2017-12-28T11:40:23.010Z,12.00
2017-12-28T11:42:50.471Z,13.10
2017-12-28T11:45:17.937Z,12.52
2017-12-28T11:47:45.394Z,14.93
2017-12-28T11:50:12.849Z,19.10
2017-12-28T11:52:43.079Z,14.85
2017-12-28T12:08:34.512Z,8.93
2017-12-28T12:11:01.995Z,13.57
2017-12-28T12:13:29.440Z,14.35
2017-12-28T12:15:56.898Z,10.05
2017-12-28T12:18:24.354Z,8.57
2017-12-28T12:20:51.819Z,11.57
2017-12-28T12:23:19.287Z,7.65
2017-12-28T12:25:46.758Z,8.30
2017-12-28T12:28:14.238Z,10.15
2017-12-28T12:30:41.702Z,7.90
2017-12-28T12:33:09.172Z,10.38
2017-12-28T12:35:36.632Z,13.20
2017-12-28T12:38:04.094Z,8.63
2017-12-28T12:40:31.532Z,8.48
2017-12-28T12:42:58.997Z,10.02
2017-12-28T12:45:26.443Z,9.57
2017-12-28T12:47:53.894Z,7.68
2017-12-28T12:50:21.352Z,8.90
2017-12-28T12:52:48.815Z,15.18
2017-12-28T12:55:16.268Z,6.60
2017-12-28T12:57:43.720Z,8.57
2017-12-28T13:00:11.177Z,7.40
2017-12-28T13:02:38.655Z,6.97
2017-12-28T13:05:06.127Z,9.88
2017-12-28T13:07:33.534Z,6.60
2017-12-28T13:10:01.048Z,6.90
2017-12-28T13:12:28.502Z,6.60
2017-12-28T13:14:55.948Z,7.05
2017-12-28T13:17:23.398Z,7.00
2017-12-28T13:19:50.863Z,9.20
2017-12-28T13:22:18.308Z,7.18
2017-12-28T13:24:45.763Z,6.75
2017-12-28T13:27:13.204Z,6.60
2017-12-28T13:29:40.658Z,6.50
2017-12-28T13:32:08.107Z,5.75
2017-12-28T13:34:35.575Z,6.03
2017-12-28T13:37:03.038Z,7.10
2017-12-28T13:39:30.509Z,7.20
2017-12-28T13:41:57.959Z,6.07
2017-12-28T13:44:25.410Z,6.80
2017-12-28T13:46:52.865Z,6.30
2017-12-28T13:49:20.327Z,7.93
2017-12-28T13:51:47.791Z,7.30
2017-12-28T13:54:15.266Z,6.60
2017-12-28T13:56:42.708Z,6.87
2017-12-28T13:59:10.170Z,6.78
2017-12-28T14:01:37.616Z,6.43
2017-12-28T14:04:05.063Z,7.40
2017-12-28T14:06:32.522Z,7.20
2017-12-28T14:08:59.995Z,6.90
2017-12-28T14:11:27.444Z,7.50
2017-12-28T14:13:54.919Z,6.78
2017-12-28T14:16:22.356Z,7.70
2017-12-28T14:18:49.816Z,7.68
2017-12-28T14:21:17.282Z,11.02
2017-12-28T14:23:44.758Z,12.05
2017-12-28T14:26:12.227Z,10.20
2017-12-28T14:28:39.686Z,8.65
2017-12-28T14:31:07.159Z,9.77
2017-12-28T14:33:34.595Z,9.77
2017-12-28T14:36:02.058Z,10.70
2017-12-28T14:38:29.545Z,10.80
2017-12-28T14:40:57.051Z,8.63
2017-12-28T14:43:24.495Z,10.40
2017-12-28T14:45:51.943Z,9.00
2017-12-28T14:48:19.412Z,11.52
2017-12-28T14:50:46.879Z,8.60
2017-12-28T14:53:14.335Z,10.98
2017-12-28T14:55:41.803Z,11.98
2017-12-28T14:58:09.249Z,12.10
2017-12-28T15:00:36.726Z,11.57
2017-12-28T15:03:04.184Z,17.15
2017-12-28T15:05:31.647Z,19.00
2017-12-28T15:07:59.107Z,13.82
2017-12-28T15:10:26.562Z,17.05
2017-12-28T15:12:54.004Z,12.10
2017-12-28T15:15:21.482Z,11.35
2017-12-28T15:17:48.932Z,14.98
2017-12-28T15:20:16.390Z,14.48
2017-12-28T15:22:43.869Z,14.35
2017-12-28T15:25:11.328Z,16.90
2017-12-28T15:27:38.795Z,13.27
2017-12-28T15:30:06.271Z,8.93
2017-12-28T15:32:33.712Z,14.30
2017-12-28T15:35:01.192Z,12.15
2017-12-28T15:37:28.636Z,15.43
2017-12-28T15:39:56.099Z,12.48
2017-12-28T15:42:23.564Z,13.27
2017-12-28T15:44:51.008Z,12.55
2017-12-28T15:47:18.467Z,18.10
2017-12-28T15:49:45.928Z,19.65
2017-12-28T15:52:13.407Z,19.90
2017-12-28T15:54:40.854Z,11.60
2017-12-28T15:57:08.312Z,20.37
2017-12-28T15:59:35.779Z,16.95
2017-12-28T16:02:03.248Z,16.62
2017-12-28T16:04:30.716Z,16.35
2017-12-28T16:06:58.196Z,19.02
2017-12-28T16:09:25.679Z,19.67
2017-12-28T16:11:53.530Z,12.98
2017-12-28T16:14:20.993Z,17.33
2017-12-28T16:16:48.497Z,19.85
2017-12-28T16:19:15.958Z,20.80
2017-12-28T16:21:43.401Z,18.23
2017-12-28T16:24:10.864Z,26.25
2017-12-28T16:26:38.349Z,22.50
2017-12-28T16:29:05.804Z,23.40
2017-12-28T16:31:33.230Z,20.02
2017-12-28T16:34:00.726Z,18.58
2017-12-28T16:36:28.196Z,20.90
2017-12-28T16:38:55.656Z,20.67
2017-12-28T16:41:23.112Z,28.48
2017-12-28T16:43:50.567Z,18.48
2017-12-28T16:46:18.043Z,20.88
2017-12-28T16:48:45.502Z,16.15
2017-12-28T16:51:12.955Z,32.08
2017-12-28T16:53:40.437Z,25.00
2017-12-28T16:56:07.902Z,14.27
2017-12-28T16:58:35.344Z,12.45
2017-12-28T17:01:03.823Z,18.20
2017-12-28T17:03:31.283Z,16.70
2017-12-28T17:05:58.745Z,16.55
2017-12-28T17:08:26.200Z,13.80
2017-12-28T17:10:53.671Z,13.62
2017-12-28T17:13:22.134Z,19.10
2017-12-28T17:15:49.621Z,28.35
2017-12-28T17:18:17.075Z,14.57
2017-12-28T17:20:44.528Z,12.15
2017-12-28T17:23:11.986Z,14.45
2017-12-28T17:25:39.443Z,22.55
2017-12-28T17:28:06.928Z,15.48
2017-12-28T17:30:34.376Z,20.02
2017-12-28T17:33:01.832Z,16.17
2017-12-28T17:35:29.276Z,19.62
2017-12-28T17:37:57.906Z,13.85
2017-12-28T17:40:25.411Z,14.80
2017-12-28T17:42:52.886Z,22.58
2017-12-28T17:45:20.358Z,22.80
2017-12-28T17:47:47.830Z,17.17
2017-12-28T17:50:15.301Z,19.75
2017-12-28T17:52:42.766Z,15.70
2017-12-28T17:55:10.239Z,12.10
2017-12-28T17:57:37.698Z,16.95
2017-12-28T18:00:05.166Z,13.93
2017-12-28T18:02:32.625Z,19.52
2017-12-28T18:05:00.076Z,38.42
2017-12-28T18:07:27.528Z,17.20
2017-12-28T18:09:55.016Z,23.08
2017-12-28T18:12:22.491Z,42.95
2017-12-28T18:14:49.936Z,23.75
2017-12-28T18:17:17.396Z,20.10
2017-12-28T18:19:44.844Z,13.73
2017-12-28T18:22:12.376Z,18.73
2017-12-28T18:24:39.844Z,22.90
2017-12-28T18:27:07.327Z,11.93
2017-12-28T18:29:34.785Z,15.02
2017-12-28T18:32:02.279Z,27.35
2017-12-28T18:34:29.735Z,20.17
2017-12-28T18:36:57.234Z,26.60
2017-12-28T18:39:24.728Z,15.88
2017-12-28T18:41:52.234Z,25.95
2017-12-28T18:44:19.747Z,20.40
2017-12-28T18:46:47.233Z,17.33
2017-12-28T18:49:14.702Z,24.63
2017-12-28T18:51:42.173Z,21.87
2017-12-28T18:54:09.693Z,23.70
2017-12-28T18:56:37.167Z,25.30
2017-12-28T18:59:04.652Z,17.90
2017-12-28T19:01:32.156Z,20.05
2017-12-28T19:03:59.629Z,20.45
2017-12-28T19:06:27.113Z,19.90
2017-12-28T19:08:54.605Z,21.95
2017-12-28T19:11:22.056Z,17.95
2017-12-28T19:13:49.524Z,19.83
2017-12-28T19:16:16.969Z,18.95
2017-12-28T19:18:44.461Z,20.70
2017-12-28T19:21:11.928Z,19.23
2017-12-28T19:23:39.376Z,15.43
2017-12-28T19:26:06.838Z,15.05
2017-12-28T19:28:34.313Z,17.75
2017-12-28T19:31:01.788Z,21.65
2017-12-28T19:33:29.277Z,17.40
2017-12-28T19:35:56.763Z,27.42
2017-12-28T19:38:24.220Z,23.15
2017-12-28T19:40:51.689Z,19.15
2017-12-28T19:43:19.153Z,20.30
2017-12-28T19:45:46.626Z,22.58
2017-12-28T19:48:14.065Z,17.25
2017-12-28T19:50:41.551Z,25.52
2017-12-28T19:53:08.996Z,20.35
2017-12-28T19:55:36.457Z,20.27
2017-12-28T19:58:03.943Z,21.27
2017-12-28T20:00:31.404Z,16.52
2017-12-28T20:02:58.874Z,18.20
2017-12-28T20:05:26.341Z,16.02
2017-12-28T20:07:53.803Z,14.27
2017-12-28T20:10:21.256Z,13.80
2017-12-28T20:12:48.736Z,24.90
2017-12-28T20:15:16.203Z,20.08
2017-12-28T20:17:43.686Z,20.92
2017-12-28T20:20:11.244Z,16.58
2017-12-28T20:22:39.422Z,17.65
2017-12-28T20:25:06.981Z,16.23
2017-12-28T20:27:34.542Z,16.08
2017-12-28T20:30:02.072Z,11.10
2017-12-28T20:32:29.670Z,14.93
2017-12-28T20:34:57.218Z,24.48
2017-12-28T20:37:24.778Z,17.58
2017-12-28T20:39:52.257Z,16.12
2017-12-28T20:42:20.658Z,20.60
2017-12-28T20:44:48.105Z,17.37
2017-12-28T20:47:15.588Z,13.70
2017-12-28T20:49:43.056Z,17.12
2017-12-28T20:52:10.506Z,18.35
2017-12-28T20:54:37.979Z,23.10
2017-12-28T20:57:05.542Z,17.73
2017-12-28T20:59:33.019Z,25.50
2017-12-28T21:02:00.483Z,16.80
2017-12-28T21:04:27.946Z,16.33
2017-12-28T21:06:55.399Z,22.42
2017-12-28T21:09:22.861Z,22.75
2017-12-28T21:11:50.328Z,17.48
2017-12-28T21:14:17.776Z,16.15
2017-12-28T21:16:45.250Z,16.92
2017-12-28T21:19:12.711Z,12.52
2017-12-28T21:21:40.156Z,16.42
2017-12-28T21:24:07.639Z,19.52
2017-12-28T21:26:35.099Z,13.15
2017-12-28T21:29:02.563Z,22.60
2017-12-28T21:31:30.050Z,21.42
2017-12-28T21:33:57.520Z,14.02
2017-12-28T21:36:24.973Z,14.10
2017-12-28T21:38:52.436Z,18.40
2017-12-28T21:41:19.892Z,18.85
2017-12-28T21:43:47.343Z,17.90
2017-12-28T21:46:14.876Z,19.95
2017-12-28T21:48:42.329Z,22.00
2017-12-28T21:51:09.805Z,31.05
2017-12-28T21:53:37.268Z,19.60
2017-12-28T21:56:04.754Z,53.78
2017-12-28T21:58:32.214Z,21.42
2017-12-28T22:00:59.765Z,12.52
2017-12-28T22:03:27.234Z,13.77
2017-12-28T22:05:54.763Z,15.82
2017-12-28T22:08:22.265Z,23.83
2017-12-28T22:10:49.747Z,15.68
2017-12-28T22:13:17.211Z,21.95
2017-12-28T22:15:44.677Z,19.77
2017-12-28T22:18:12.155Z,15.68
2017-12-28T22:20:39.623Z,20.33
2017-12-28T22:23:07.114Z,22.50
2017-12-28T22:25:34.596Z,12.37
2017-12-28T22:28:02.054Z,14.55
2017-12-28T22:30:29.543Z,25.88
2017-12-28T22:32:57.002Z,17.20
2017-12-28T22:35:24.717Z,17.87
2017-12-28T22:37:52.186Z,17.05
2017-12-28T22:40:19.644Z,18.95
2017-12-28T22:42:47.127Z,18.98
2017-12-28T22:45:14.607Z,18.90
2017-12-28T22:47:42.072Z,18.58
2017-12-28T22:50:09.559Z,10.88
2017-12-28T22:52:37.044Z,12.68
2017-12-28T22:55:04.519Z,16.98
2017-12-28T22:57:31.972Z,16.90
2017-12-28T22:59:59.455Z,23.42
2017-12-28T23:02:26.914Z,9.98
2017-12-28T23:04:54.390Z,19.17
2017-12-28T23:07:21.852Z,10.20
2017-12-28T23:09:49.292Z,18.35
2017-12-28T23:12:16.736Z,14.90
2017-12-28T23:14:44.211Z,23.83
2017-12-28T23:17:11.668Z,14.23
2017-12-28T23:19:39.139Z,13.75
2017-12-28T23:22:06.630Z,12.23
2017-12-28T23:24:34.072Z,8.60
2017-12-28T23:27:01.511Z,10.30
2017-12-28T23:29:28.990Z,15.25
2017-12-28T23:31:56.455Z,15.57
2017-12-28T23:34:23.918Z,12.77
2017-12-28T23:36:51.398Z,12.90
2017-12-28T23:39:18.841Z,12.07
2017-12-28T23:41:46.307Z,14.10
2017-12-28T23:44:13.770Z,9.38
2017-12-28T23:46:41.219Z,16.60
2017-12-28T23:49:08.690Z,11.55
2017-12-28T23:51:36.167Z,11.35
2017-12-28T23:54:03.630Z,14.48
2017-12-28T23:56:31.080Z,21.45
2017-12-28T23:58:58.539Z,13.35
